createdAt,value
2023-01-12T00:02:22.102Z,12.03
2023-01-12T00:07:24.590Z,8.67
2023-01-12T00:12:26.907Z,12.80
2023-01-12T00:17:30.233Z,6.30
2023-01-12T00:22:32.305Z,10.73
2023-01-12T00:27:34.321Z,9.00
2023-01-12T00:32:37.744Z,8.30
2023-01-12T00:37:39.697Z,8.50
2023-01-12T00:42:41.649Z,8.57
2023-01-12T00:47:45.141Z,5.97
2023-01-12T00:52:47.733Z,7.07
2023-01-12T00:57:49.895Z,10.10
2023-01-12T01:02:53.652Z,6.53
2023-01-12T01:07:55.817Z,13.20
2023-01-12T01:13:05.293Z,5.47
2023-01-12T01:18:08.868Z,6.90
2023-01-12T01:23:11.771Z,11.10
2023-01-12T01:28:15.073Z,11.70
2023-01-12T01:33:18.767Z,5.20
2023-01-12T01:38:20.830Z,9.97
2023-01-12T01:43:25.145Z,3.83
2023-01-12T01:48:32.135Z,4.37
2023-01-12T01:53:37.801Z,4.33
2023-01-12T01:58:43.502Z,9.10
2023-01-12T02:03:47.676Z,2.63
2023-01-12T02:08:55.060Z,2.23
2023-01-12T02:13:57.076Z,3.50
2023-01-12T02:19:22.931Z,3.97
2023-01-12T02:24:56.180Z,2.57
2023-01-12T02:30:51.687Z,8.83
2023-01-12T02:36:01.587Z,6.63
2023-01-12T02:41:09.860Z,4.63
2023-01-12T02:46:19.075Z,5.70
2023-01-12T02:51:28.152Z,2.50
2023-01-12T02:56:33.395Z,4.47
2023-01-12T03:01:37.591Z,3.10
2023-01-12T03:06:44.399Z,2.90
2023-01-12T03:11:51.556Z,13.63
2023-01-12T03:16:56.796Z,4.60
2023-01-12T03:22:03.640Z,4.30
2023-01-12T03:27:10.591Z,2.23
2023-01-12T03:32:13.008Z,6.67
2023-01-12T03:37:25.967Z,6.53
2023-01-12T03:42:31.984Z,4.37
2023-01-12T03:47:35.303Z,3.17
2023-01-12T03:52:41.647Z,4.07
2023-01-12T03:57:44.933Z,1.67
2023-01-12T04:02:47.221Z,6.07
2023-01-12T04:07:50.741Z,6.37
2023-01-12T04:12:53.160Z,6.93
2023-01-12T04:17:55.421Z,3.30
2023-01-12T04:23:20.684Z,4.53
2023-01-12T04:28:22.753Z,7.03
2023-01-12T04:33:25.008Z,4.57
2023-01-12T04:38:28.582Z,8.00
2023-01-12T04:43:30.743Z,5.07
2023-01-12T04:48:33.200Z,3.70
2023-01-12T04:53:36.723Z,6.00
2023-01-12T04:58:38.818Z,4.83
2023-01-12T05:03:40.994Z,5.03
2023-01-12T05:08:44.525Z,5.00
2023-01-12T05:13:47.382Z,4.63
2023-01-12T05:18:49.739Z,1.23
2023-01-12T05:23:53.384Z,8.57
2023-01-12T05:28:55.472Z,5.13
2023-01-12T05:33:57.610Z,5.00
2023-01-12T05:39:01.158Z,3.63
2023-01-12T05:44:03.730Z,2.40
2023-01-12T05:49:05.852Z,7.80
2023-01-12T05:54:10.939Z,2.37
2023-01-12T05:59:13.056Z,4.13
2023-01-12T06:04:15.097Z,8.73
2023-01-12T06:09:18.427Z,4.27
2023-01-12T06:14:20.990Z,4.07
2023-01-12T06:19:22.717Z,4.47
2023-01-12T06:24:26.213Z,4.93
2023-01-12T06:29:27.953Z,4.00
2023-01-12T06:34:41.657Z,8.07
2023-01-12T06:39:44.814Z,3.57
2023-01-12T06:44:48.860Z,6.20
2023-01-12T06:49:51.426Z,4.83
2023-01-12T06:54:54.975Z,4.13
2023-01-12T06:59:56.712Z,5.67
2023-01-12T07:04:58.616Z,3.03
2023-01-12T07:10:26.723Z,3.43
2023-01-12T07:15:28.703Z,3.37
2023-01-12T07:20:36.199Z,4.90
2023-01-12T07:25:39.674Z,4.40
2023-01-12T07:30:41.620Z,2.37
2023-01-12T07:35:43.661Z,2.43
2023-01-12T07:40:46.702Z,3.63
2023-01-12T07:45:48.400Z,2.07
2023-01-12T07:50:50.194Z,4.80
2023-01-12T07:55:53.304Z,4.47
2023-01-12T08:00:58.957Z,4.93
2023-01-12T08:06:01.709Z,4.10
2023-01-12T08:11:07.559Z,6.63
2023-01-12T08:16:16.125Z,2.13
2023-01-12T08:21:22.222Z,4.77
2023-01-12T08:26:38.654Z,1.63
2023-01-12T08:31:41.107Z,2.13
2023-01-12T08:36:44.567Z,3.57
2023-01-12T08:41:47.907Z,2.10
2023-01-12T08:46:51.980Z,2.77
2023-01-12T08:51:53.918Z,2.63
2023-01-12T08:56:58.275Z,4.97
2023-01-12T09:02:00.329Z,2.10
2023-01-12T09:07:02.259Z,2.27
2023-01-12T09:12:05.905Z,2.57
2023-01-12T09:17:08.456Z,1.57
2023-01-12T09:22:10.352Z,5.83
2023-01-12T09:27:13.573Z,2.80
2023-01-12T09:32:16.895Z,2.27
2023-01-12T09:37:20.747Z,1.90
2023-01-12T09:42:24.478Z,3.27
2023-01-12T09:47:32.371Z,2.60
2023-01-12T09:52:38.951Z,1.33
2023-01-12T09:58:14.021Z,3.77
2023-01-12T10:03:24.819Z,4.67
2023-01-12T10:08:32.473Z,4.33
2023-01-12T10:14:03.113Z,1.63
2023-01-12T10:19:18.629Z,2.20
2023-01-12T10:24:23.354Z,5.03
2023-01-12T10:29:27.120Z,3.50
2023-01-12T10:34:48.547Z,4.07
2023-01-12T10:39:52.067Z,2.93
2023-01-12T10:45:12.117Z,4.63
2023-01-12T10:50:23.322Z,1.83
2023-01-12T10:55:31.131Z,5.87
2023-01-12T11:00:35.471Z,2.10
2023-01-12T11:05:38.861Z,5.23
2023-01-12T11:10:40.912Z,4.37
2023-01-12T11:15:57.164Z,3.43
2023-01-12T11:21:05.041Z,1.73
2023-01-12T11:26:15.643Z,2.83
2023-01-12T11:31:21.990Z,2.07
2023-01-12T11:36:27.478Z,2.00
2023-01-12T11:41:35.611Z,1.40
2023-01-12T11:46:42.121Z,2.67
2023-01-12T11:51:51.647Z,3.43
2023-01-12T11:57:19.605Z,4.00
2023-01-12T12:02:35.140Z,1.63
2023-01-12T12:07:51.098Z,2.97
2023-01-12T12:13:22.278Z,3.13
2023-01-12T12:18:38.630Z,2.40
2023-01-12T12:23:50.111Z,0.40
2023-01-12T12:29:12.917Z,0.63
2023-01-12T12:34:42.710Z,1.20
2023-01-12T12:39:56.542Z,1.30
2023-01-12T12:45:06.349Z,0.93
2023-01-12T12:50:18.145Z,0.20
2023-01-12T12:55:20.619Z,1.57
2023-01-12T13:00:35.349Z,0.30
2023-01-12T13:06:21.506Z,1.60
2023-01-12T13:11:48.175Z,4.73
2023-01-12T13:16:52.306Z,0.40
2023-01-12T13:21:58.299Z,3.13
2023-01-12T13:27:00.724Z,0.40
2023-01-12T13:32:50.310Z,6.17
2023-01-12T13:38:02.710Z,0.37
2023-01-12T13:43:13.925Z,0.60
2023-01-12T13:48:18.927Z,0.37
2023-01-12T13:53:28.369Z,4.23
2023-01-12T13:58:40.618Z,0.40
2023-01-12T14:03:59.839Z,1.10
2023-01-12T14:09:15.791Z,0.50
2023-01-12T14:14:46.119Z,0.40
2023-01-12T14:19:49.693Z,0.83
2023-01-12T14:24:53.234Z,0.80
2023-01-12T14:29:55.195Z,2.23
2023-01-12T14:34:57.099Z,0.20
2023-01-12T14:40:02.147Z,2.23
2023-01-12T14:45:21.647Z,0.90
2023-01-12T14:50:23.748Z,0.70
2023-01-12T14:55:37.782Z,1.67
2023-01-12T15:00:44.054Z,1.13
2023-01-12T15:05:46.424Z,0.40
2023-01-12T15:10:58.903Z,0.30
2023-01-12T15:16:01.871Z,0.10
2023-01-12T15:21:04.408Z,0.27
2023-01-12T15:26:07.972Z,0.17
2023-01-12T15:31:19.003Z,0.40
2023-01-12T15:36:21.160Z,1.80
2023-01-12T15:41:27.044Z,0.40
2023-01-12T15:46:29.421Z,0.70
2023-01-12T15:51:31.838Z,0.33
2023-01-12T15:56:35.203Z,1.13
2023-01-12T16:01:40.506Z,0.93
2023-01-12T16:06:43.092Z,0.53
2023-01-12T16:11:46.741Z,0.63
2023-01-12T16:16:48.885Z,1.00
2023-01-12T16:21:51.179Z,0.47
2023-01-12T16:26:54.552Z,0.30
2023-01-12T16:31:57.068Z,0.20
2023-01-12T16:37:00.644Z,0.17
2023-01-12T16:42:04.103Z,0.53
2023-01-12T16:47:07.288Z,1.50
2023-01-12T16:52:14.569Z,4.37
2023-01-12T16:57:18.247Z,0.30
2023-01-12T17:02:20.569Z,1.57
2023-01-12T17:07:23.240Z,0.37
2023-01-12T17:12:27.195Z,0.30
2023-01-12T17:17:29.290Z,1.70
2023-01-12T17:22:31.818Z,1.13
2023-01-12T17:27:35.307Z,0.60
2023-01-12T17:32:37.839Z,0.30
2023-01-12T17:37:39.956Z,0.20
2023-01-12T17:42:43.250Z,0.23
2023-01-12T17:47:45.553Z,0.33
2023-01-12T17:52:47.887Z,0.20
2023-01-12T17:57:51.009Z,0.40
2023-01-12T18:02:53.099Z,0.67
2023-01-12T18:07:55.258Z,0.20
2023-01-12T18:12:58.818Z,0.27
2023-01-12T18:18:01.221Z,0.23
2023-01-12T18:23:03.275Z,1.20
2023-01-12T18:28:06.395Z,0.27
2023-01-12T18:33:08.323Z,0.73
2023-01-12T18:38:12.210Z,0.30
2023-01-12T18:43:17.068Z,0.83
2023-01-12T18:48:18.785Z,0.83
2023-01-12T18:53:21.503Z,0.93
2023-01-12T18:58:26.112Z,0.47
2023-01-12T19:03:28.134Z,0.20
2023-01-12T19:08:30.931Z,0.27
2023-01-12T19:13:34.124Z,0.20
2023-01-12T19:18:36.411Z,1.20
2023-01-12T19:23:40.379Z,0.30
2023-01-12T19:28:45.887Z,1.10
2023-01-12T19:33:47.830Z,0.40
2023-01-12T19:38:50.839Z,0.43
2023-01-12T19:43:54.541Z,1.57
2023-01-12T19:48:56.714Z,0.40
2023-01-12T19:53:59.054Z,0.20
2023-01-12T19:59:02.378Z,1.77
2023-01-12T20:04:04.556Z,0.40
2023-01-12T20:09:06.845Z,0.70
2023-01-12T20:14:10.490Z,0.40
2023-01-12T20:19:12.671Z,0.70
2023-01-12T20:24:14.907Z,0.40
2023-01-12T20:29:18.308Z,0.53
2023-01-12T20:34:20.968Z,0.40
2023-01-12T20:39:22.735Z,1.30
2023-01-12T20:44:25.846Z,0.73
2023-01-12T20:49:27.721Z,0.43
2023-01-12T20:54:29.877Z,0.50
2023-01-12T20:59:33.394Z,0.40
2023-01-12T21:04:35.726Z,0.30
2023-01-12T21:09:37.820Z,1.10
2023-01-12T21:14:41.361Z,0.40
2023-01-12T21:19:43.306Z,1.10
2023-01-12T21:24:47.811Z,2.33
2023-01-12T21:29:51.121Z,2.93
2023-01-12T21:34:53.230Z,0.60
2023-01-12T21:39:55.276Z,1.13
2023-01-12T21:44:58.807Z,2.00
2023-01-12T21:50:00.590Z,1.33
2023-01-12T21:55:02.835Z,0.47
2023-01-12T22:00:07.778Z,0.53
2023-01-12T22:05:09.998Z,0.50
2023-01-12T22:10:11.826Z,0.37
2023-01-12T22:15:15.326Z,1.40
2023-01-12T22:20:17.700Z,0.73
2023-01-12T22:25:20.185Z,0.87
2023-01-12T22:30:24.855Z,0.60
2023-01-12T22:35:27.129Z,0.40
2023-01-12T22:40:29.897Z,0.70
2023-01-12T22:45:35.293Z,0.87
2023-01-12T22:50:37.498Z,0.43
2023-01-12T22:55:39.835Z,0.50
2023-01-12T23:00:43.643Z,0.80
2023-01-12T23:05:47.784Z,1.17
2023-01-12T23:10:50.836Z,0.73
2023-01-12T23:15:55.985Z,0.47
2023-01-12T23:21:02.368Z,1.37
2023-01-12T23:26:06.340Z,0.43
2023-01-12T23:31:12.255Z,0.43
2023-01-12T23:36:16.570Z,0.37
2023-01-12T23:41:20.362Z,0.87
2023-01-12T23:46:23.854Z,1.37
2023-01-12T23:51:30.100Z,0.80
2023-01-12T23:56:34.565Z,0.27
